createdAt,value
2019-05-03T00:00:58.483Z,9.00
2019-05-03T00:03:24.798Z,8.90
2019-05-03T00:05:52.533Z,9.00
2019-05-03T00:08:18.740Z,8.90
2019-05-03T00:10:45.046Z,8.90
2019-05-03T00:13:12.476Z,8.90
2019-05-03T00:15:52.868Z,9.00
2019-05-03T00:18:19.135Z,9.00
2019-05-03T00:20:45.389Z,9.00
2019-05-03T00:23:12.111Z,9.00
2019-05-03T00:25:38.333Z,9.00
2019-05-03T00:28:04.661Z,9.00
2019-05-03T00:30:31.993Z,9.00
2019-05-03T00:32:58.422Z,9.00
2019-05-03T00:35:26.526Z,8.90
2019-05-03T00:37:54.660Z,8.90
2019-05-03T00:40:28.079Z,8.90
2019-05-03T00:42:54.925Z,8.90
2019-05-03T00:45:22.116Z,8.90
2019-05-03T00:47:48.459Z,9.00
2019-05-03T00:50:15.125Z,9.00
2019-05-03T00:52:42.344Z,9.00
2019-05-03T00:55:16.312Z,9.00
2019-05-03T00:57:36.814Z,9.10
2019-05-03T01:00:06.146Z,9.10
2019-05-03T01:02:32.372Z,9.10
2019-05-03T01:04:58.616Z,9.10
2019-05-03T01:07:24.903Z,9.10
2019-05-03T01:09:51.795Z,9.10
2019-05-03T01:12:18.207Z,9.10
2019-05-03T01:14:46.367Z,9.10
2019-05-03T01:17:12.574Z,9.10
2019-05-03T01:19:38.840Z,9.10
2019-05-03T01:22:05.142Z,9.10
2019-05-03T01:24:32.271Z,9.10
2019-05-03T01:26:58.799Z,9.10
2019-05-03T01:29:25.116Z,9.00
2019-05-03T01:31:52.833Z,9.00
2019-05-03T01:34:19.080Z,9.00
2019-05-03T01:36:45.342Z,9.00
2019-05-03T01:39:12.771Z,9.00
2019-05-03T01:41:39.216Z,9.00
2019-05-03T01:44:05.477Z,9.10
2019-05-03T01:46:31.743Z,9.00
2019-05-03T01:49:05.606Z,9.10
2019-05-03T01:51:33.765Z,9.10
2019-05-03T01:54:01.685Z,9.00
2019-05-03T01:56:28.184Z,9.00
2019-05-03T01:58:54.375Z,9.00
2019-05-03T02:01:31.840Z,8.90
2019-05-03T02:04:03.025Z,8.90
2019-05-03T02:06:29.267Z,8.80
2019-05-03T02:08:55.526Z,8.80
2019-05-03T02:11:22.190Z,8.70
2019-05-03T02:13:48.705Z,8.60
2019-05-03T02:16:14.927Z,8.50
2019-05-03T02:18:42.424Z,8.50
2019-05-03T02:21:08.700Z,8.40
2019-05-03T02:23:34.933Z,8.40
2019-05-03T02:26:02.888Z,8.40
2019-05-03T02:28:29.514Z,8.30
2019-05-03T02:30:55.732Z,8.30
2019-05-03T02:33:23.376Z,8.30
2019-05-03T02:35:49.819Z,8.30
2019-05-03T02:38:16.053Z,8.20
2019-05-03T02:40:43.104Z,8.20
2019-05-03T02:43:17.077Z,8.30
2019-05-03T02:45:48.708Z,8.30
2019-05-03T02:48:16.853Z,8.30
2019-05-03T02:50:45.137Z,8.30
2019-05-03T02:53:11.102Z,8.30
2019-05-03T02:55:37.320Z,8.30
2019-05-03T02:58:05.717Z,8.30
2019-05-03T03:00:56.019Z,8.40
2019-05-03T03:03:22.213Z,8.40
2019-05-03T03:05:51.139Z,8.40
2019-05-03T03:08:19.837Z,8.30
2019-05-03T03:10:46.864Z,8.30
2019-05-03T03:13:16.257Z,8.30
2019-05-03T03:15:41.787Z,8.20
2019-05-03T03:18:09.205Z,8.20
2019-05-03T03:20:37.041Z,8.10
2019-05-03T03:23:06.012Z,8.10
2019-05-03T03:25:37.155Z,8.10
2019-05-03T03:28:06.773Z,8.10
2019-05-03T03:30:59.677Z,8.10
2019-05-03T03:33:28.029Z,8.10
2019-05-03T03:36:01.110Z,8.10
2019-05-03T03:38:22.562Z,8.00
2019-05-03T03:40:49.578Z,8.00
2019-05-03T03:43:19.607Z,8.00
2019-05-03T03:45:47.413Z,8.00
2019-05-03T03:48:17.512Z,8.00
2019-05-03T03:50:45.887Z,8.00
2019-05-03T03:53:15.665Z,8.10
2019-05-03T03:55:45.950Z,8.10
2019-05-03T03:58:22.477Z,8.10
2019-05-03T04:00:46.374Z,8.10
2019-05-03T04:03:15.533Z,8.20
2019-05-03T04:05:40.932Z,8.20
2019-05-03T04:08:07.277Z,8.20
2019-05-03T04:10:35.273Z,8.20
2019-05-03T04:13:05.441Z,8.20
2019-05-03T04:15:48.931Z,8.20
2019-05-03T04:18:17.558Z,8.20
2019-05-03T04:20:45.882Z,8.20
2019-05-03T04:23:12.108Z,8.20
2019-05-03T04:25:38.833Z,8.20
2019-05-03T04:28:05.921Z,8.10
2019-05-03T04:30:33.129Z,8.20
2019-05-03T04:32:59.414Z,8.10
2019-05-03T04:35:26.609Z,8.10
2019-05-03T04:37:55.869Z,8.00
2019-05-03T04:40:21.446Z,8.00
2019-05-03T04:42:47.677Z,8.00
2019-05-03T04:45:16.526Z,8.00
2019-05-03T04:47:42.925Z,8.00
2019-05-03T04:50:09.439Z,8.00
2019-05-03T04:52:36.124Z,8.00
2019-05-03T04:55:06.575Z,8.10
2019-05-03T04:57:40.688Z,8.10
2019-05-03T05:00:01.692Z,8.10
2019-05-03T05:02:27.824Z,8.20
2019-05-03T05:04:55.579Z,8.10
2019-05-03T05:07:22.018Z,8.20
2019-05-03T05:09:48.139Z,8.30
2019-05-03T05:12:16.151Z,8.30
2019-05-03T05:14:42.465Z,8.30
2019-05-03T05:17:11.019Z,8.40
2019-05-03T05:19:47.746Z,8.40
2019-05-03T05:22:15.878Z,8.40
2019-05-03T05:24:42.082Z,8.40
2019-05-03T05:27:14.632Z,8.40
2019-05-03T05:29:41.015Z,8.30
2019-05-03T05:32:07.237Z,8.40
2019-05-03T05:34:34.923Z,8.40
2019-05-03T05:37:05.395Z,8.50
2019-05-03T05:39:31.615Z,8.50
2019-05-03T05:41:57.771Z,8.60
2019-05-03T05:44:24.767Z,8.60
2019-05-03T05:46:54.298Z,8.60
2019-05-03T05:49:40.623Z,8.60
2019-05-03T05:52:06.840Z,8.50
2019-05-03T05:54:35.015Z,8.50
2019-05-03T05:57:15.008Z,8.40
2019-05-03T05:59:52.017Z,8.40
2019-05-03T06:02:18.669Z,8.30
2019-05-03T06:04:45.259Z,8.30
2019-05-03T06:07:24.711Z,8.30
2019-05-03T06:09:58.251Z,8.20
2019-05-03T06:12:26.318Z,8.20
2019-05-03T06:14:54.477Z,8.20
2019-05-03T06:17:24.430Z,8.30
2019-05-03T06:20:05.384Z,8.30
2019-05-03T06:22:36.329Z,8.40
2019-05-03T06:25:06.739Z,8.50
2019-05-03T06:27:34.868Z,8.60
2019-05-03T06:30:05.821Z,8.70
2019-05-03T06:32:36.579Z,8.80
2019-05-03T06:35:04.973Z,8.80
2019-05-03T06:37:45.878Z,8.80
2019-05-03T06:40:14.778Z,8.70
2019-05-03T06:42:51.608Z,8.70
2019-05-03T06:45:11.684Z,8.70
2019-05-03T06:47:40.410Z,8.90
2019-05-03T06:50:05.905Z,9.00
2019-05-03T06:52:32.103Z,9.20
2019-05-03T06:55:00.262Z,9.40
2019-05-03T06:57:26.334Z,9.60
2019-05-03T06:59:55.024Z,9.70
2019-05-03T07:02:32.116Z,9.80
2019-05-03T07:05:06.142Z,9.90
2019-05-03T07:07:46.255Z,10.00
2019-05-03T07:10:24.936Z,10.00
2019-05-03T07:12:57.001Z,9.90
2019-05-03T07:15:25.008Z,9.70
2019-05-03T07:17:51.233Z,9.70
2019-05-03T07:20:17.480Z,9.60
2019-05-03T07:22:44.471Z,9.50
2019-05-03T07:25:10.956Z,9.50
2019-05-03T07:27:37.192Z,9.50
2019-05-03T07:30:05.659Z,9.50
2019-05-03T07:32:31.820Z,9.60
2019-05-03T07:34:57.945Z,9.70
2019-05-03T07:37:24.618Z,9.80
2019-05-03T07:39:50.918Z,9.90
2019-05-03T07:42:17.156Z,9.90
2019-05-03T07:44:44.973Z,9.90
2019-05-03T07:47:11.256Z,10.00
2019-05-03T07:49:37.340Z,10.10
2019-05-03T07:52:05.633Z,10.20
2019-05-03T07:54:31.780Z,10.40
2019-05-03T07:56:59.888Z,10.50
2019-05-03T07:59:25.991Z,10.70
2019-05-03T08:01:54.642Z,10.80
2019-05-03T08:04:20.976Z,11.00
2019-05-03T08:06:47.200Z,11.00
2019-05-03T08:09:15.182Z,11.00
2019-05-03T08:11:41.527Z,10.80
2019-05-03T08:14:09.097Z,10.70
2019-05-03T08:16:35.420Z,10.60
2019-05-03T08:19:01.919Z,10.60
2019-05-03T08:21:28.041Z,10.70
2019-05-03T08:23:55.657Z,10.80
2019-05-03T08:26:22.063Z,10.80
2019-05-03T08:28:48.249Z,10.80
2019-05-03T08:31:16.269Z,10.70
2019-05-03T08:34:01.166Z,10.60
2019-05-03T08:36:27.291Z,10.70
2019-05-03T08:38:53.395Z,10.80
2019-05-03T08:41:25.144Z,10.90
2019-05-03T08:43:51.369Z,10.90
2019-05-03T08:46:17.555Z,10.90
2019-05-03T08:48:45.526Z,10.90
2019-05-03T08:51:11.759Z,11.00
2019-05-03T08:53:37.911Z,11.00
2019-05-03T08:56:05.256Z,11.00
2019-05-03T08:58:32.048Z,11.20
2019-05-03T09:00:58.186Z,11.40
2019-05-03T09:03:24.908Z,11.60
2019-05-03T09:05:51.265Z,11.70
2019-05-03T09:08:17.702Z,11.80
2019-05-03T09:10:48.507Z,11.70
2019-05-03T09:13:16.734Z,11.70
2019-05-03T09:15:44.960Z,11.80
2019-05-03T09:18:14.245Z,11.90
2019-05-03T09:20:39.252Z,12.10
2019-05-03T09:23:05.785Z,11.90
2019-05-03T09:25:32.077Z,11.90
2019-05-03T09:27:58.192Z,11.90
2019-05-03T09:30:25.085Z,11.90
2019-05-03T09:32:51.329Z,11.90
2019-05-03T09:35:29.648Z,11.70
2019-05-03T09:37:45.915Z,11.50
2019-05-03T09:40:12.118Z,11.30
2019-05-03T09:42:38.236Z,11.20
2019-05-03T09:45:05.800Z,11.30
2019-05-03T09:47:32.037Z,11.60
2019-05-03T09:49:58.130Z,11.90
2019-05-03T09:52:24.968Z,12.20
2019-05-03T09:54:54.756Z,12.30
2019-05-03T09:57:20.973Z,12.50
2019-05-03T09:59:56.615Z,12.70
2019-05-03T10:02:15.218Z,12.90
2019-05-03T10:04:41.497Z,12.90
2019-05-03T10:07:07.722Z,12.70
2019-05-03T10:09:35.388Z,12.60
2019-05-03T10:12:05.362Z,12.50
2019-05-03T10:14:31.331Z,12.50
2019-05-03T10:17:16.629Z,12.40
2019-05-03T10:19:45.038Z,12.40
2019-05-03T10:22:12.765Z,12.70
2019-05-03T10:24:38.881Z,13.00
2019-05-03T10:27:05.598Z,13.10
2019-05-03T10:29:32.066Z,13.10
2019-05-03T10:32:09.401Z,13.10
2019-05-03T10:34:35.768Z,13.10
2019-05-03T10:37:05.213Z,13.30
2019-05-03T10:39:31.474Z,13.30
2019-05-03T10:41:57.662Z,13.30
2019-05-03T10:44:24.536Z,13.20
2019-05-03T10:46:55.905Z,13.10
2019-05-03T10:49:22.086Z,13.20
2019-05-03T10:51:50.210Z,13.40
2019-05-03T10:54:16.295Z,13.50
2019-05-03T10:56:47.093Z,13.40
2019-05-03T10:59:13.683Z,13.30
2019-05-03T11:01:47.923Z,13.30
2019-05-03T11:04:14.776Z,13.20
2019-05-03T11:06:41.048Z,13.10
2019-05-03T11:09:07.359Z,13.10
2019-05-03T11:11:35.235Z,13.20
2019-05-03T11:14:01.605Z,13.00
2019-05-03T11:16:28.158Z,13.00
2019-05-03T11:18:54.884Z,12.80
2019-05-03T11:21:28.111Z,12.60
2019-05-03T11:23:49.295Z,12.50
2019-05-03T11:26:17.533Z,12.50
2019-05-03T11:28:44.870Z,12.60
2019-05-03T11:31:29.860Z,12.60
2019-05-03T11:33:58.761Z,12.60
2019-05-03T11:36:34.755Z,12.50
2019-05-03T11:39:01.146Z,12.50
2019-05-03T11:41:32.614Z,12.50
2019-05-03T11:43:59.076Z,12.40
2019-05-03T11:46:27.483Z,12.30
2019-05-03T11:48:54.845Z,12.30
2019-05-03T11:51:21.968Z,12.40
2019-05-03T11:53:48.153Z,12.40
2019-05-03T11:56:14.818Z,12.40
2019-05-03T11:58:41.776Z,12.40
2019-05-03T12:01:15.425Z,12.40
2019-05-03T12:03:39.993Z,12.40
2019-05-03T12:06:06.361Z,12.50
2019-05-03T12:08:34.478Z,12.50
2019-05-03T12:11:05.943Z,12.70
2019-05-03T12:13:32.044Z,12.70
2019-05-03T12:15:59.338Z,12.70
2019-05-03T12:18:26.421Z,12.60
2019-05-03T12:20:57.095Z,12.40
2019-05-03T12:23:22.744Z,12.60
2019-05-03T12:25:50.569Z,12.80
2019-05-03T12:28:20.422Z,13.00
2019-05-03T12:30:47.466Z,13.00
2019-05-03T12:33:15.304Z,13.20
2019-05-03T12:35:41.664Z,13.20
2019-05-03T12:38:07.761Z,13.30
2019-05-03T12:40:34.979Z,13.30
2019-05-03T12:43:02.652Z,13.40
2019-05-03T12:45:28.842Z,13.20
2019-05-03T12:47:55.960Z,13.10
2019-05-03T12:50:22.678Z,13.00
2019-05-03T12:52:50.441Z,12.80
2019-05-03T12:55:17.141Z,12.50
2019-05-03T12:57:43.250Z,12.20
2019-05-03T13:00:18.017Z,12.10
2019-05-03T13:02:46.194Z,12.00
2019-05-03T13:05:12.319Z,12.00
2019-05-03T13:07:46.177Z,11.90
2019-05-03T13:10:12.814Z,11.90
2019-05-03T13:12:49.692Z,11.90
2019-05-03T13:15:07.586Z,11.90
2019-05-03T13:17:34.985Z,11.80
2019-05-03T13:20:01.804Z,11.80
2019-05-03T13:22:27.936Z,11.70
2019-05-03T13:24:54.518Z,11.80
2019-05-03T13:27:20.982Z,11.70
2019-05-03T13:29:47.075Z,11.70
2019-05-03T13:32:13.182Z,11.80
2019-05-03T13:34:41.310Z,11.80
2019-05-03T13:37:07.353Z,11.90
2019-05-03T13:39:35.721Z,11.90
2019-05-03T13:42:01.582Z,12.00
2019-05-03T13:44:27.855Z,12.10
2019-05-03T13:46:55.235Z,12.10
2019-05-03T13:49:23.596Z,12.00
2019-05-03T13:51:57.756Z,12.00
2019-05-03T13:54:25.798Z,12.00
2019-05-03T13:56:55.203Z,11.90
2019-05-03T13:59:22.179Z,12.00
2019-05-03T14:01:48.759Z,12.20
2019-05-03T14:04:15.357Z,12.30
2019-05-03T14:06:41.507Z,12.40
2019-05-03T14:09:07.841Z,12.50
2019-05-03T14:11:35.349Z,12.50
2019-05-03T14:14:04.697Z,12.60
2019-05-03T14:16:31.250Z,12.50
2019-05-03T14:18:59.363Z,12.20
2019-05-03T14:21:27.569Z,12.00
2019-05-03T14:24:09.019Z,11.80
2019-05-03T14:26:35.282Z,11.80
2019-05-03T14:29:01.447Z,11.70
2019-05-03T14:31:27.552Z,11.60
2019-05-03T14:33:55.589Z,11.30
2019-05-03T14:36:21.771Z,11.10
2019-05-03T14:38:47.971Z,11.00
2019-05-03T14:41:15.104Z,11.10
2019-05-03T14:43:41.741Z,11.10
2019-05-03T14:46:07.834Z,11.00
2019-05-03T14:48:35.114Z,10.80
2019-05-03T14:51:01.524Z,10.70
2019-05-03T14:53:27.704Z,10.50
2019-05-03T14:56:01.824Z,10.40
2019-05-03T14:58:29.844Z,10.40
2019-05-03T15:00:57.862Z,10.40
2019-05-03T15:03:25.859Z,10.40
2019-05-03T15:05:51.973Z,10.40
2019-05-03T15:08:18.243Z,10.50
2019-05-03T15:10:45.659Z,10.60
2019-05-03T15:13:11.983Z,10.70
2019-05-03T15:15:38.165Z,10.70
2019-05-03T15:18:05.905Z,10.80
2019-05-03T15:20:32.168Z,10.80
2019-05-03T15:22:58.370Z,10.80
2019-05-03T15:25:25.048Z,10.90
2019-05-03T15:27:51.451Z,10.80
2019-05-03T15:30:17.799Z,10.80
2019-05-03T15:32:56.596Z,10.80
2019-05-03T15:35:15.199Z,10.80
2019-05-03T15:37:45.109Z,10.90
2019-05-03T15:40:10.890Z,11.00
2019-05-03T15:42:38.985Z,11.10
2019-05-03T15:45:19.687Z,11.20
2019-05-03T15:47:56.622Z,11.20
2019-05-03T15:50:25.012Z,11.30
2019-05-03T15:52:50.876Z,11.30
2019-05-03T15:55:17.068Z,11.40
2019-05-03T15:57:44.713Z,11.40
2019-05-03T16:00:15.125Z,11.40
2019-05-03T16:02:41.356Z,11.30
2019-05-03T16:05:07.744Z,11.30
2019-05-03T16:07:35.551Z,11.20
2019-05-03T16:10:04.690Z,11.10
2019-05-03T16:12:30.961Z,11.10
2019-05-03T16:14:57.137Z,11.10
2019-05-03T16:17:24.480Z,11.20
2019-05-03T16:19:51.174Z,11.20
2019-05-03T16:22:17.301Z,11.20
2019-05-03T16:24:44.802Z,11.20
2019-05-03T16:27:16.043Z,11.00
2019-05-03T16:29:44.569Z,11.00
2019-05-03T16:32:10.399Z,10.80
2019-05-03T16:34:36.509Z,10.80
2019-05-03T16:37:04.359Z,10.80
2019-05-03T16:39:30.768Z,10.90
2019-05-03T16:41:57.275Z,10.80
2019-05-03T16:44:24.373Z,10.70
2019-05-03T16:46:50.591Z,10.60
2019-05-03T16:49:16.719Z,10.50
2019-05-03T16:51:44.285Z,10.40
2019-05-03T16:54:10.715Z,10.30
2019-05-03T16:56:36.832Z,10.20
2019-05-03T16:59:03.140Z,10.20
2019-05-03T17:01:29.334Z,10.20
2019-05-03T17:03:57.422Z,10.10
2019-05-03T17:06:26.544Z,10.10
2019-05-03T17:09:11.397Z,10.00
2019-05-03T17:11:37.694Z,10.00
2019-05-03T17:14:05.020Z,9.90
2019-05-03T17:16:31.391Z,9.90
2019-05-03T17:18:57.520Z,10.00
2019-05-03T17:21:25.475Z,10.00
2019-05-03T17:23:51.589Z,10.00
2019-05-03T17:26:17.776Z,9.90
2019-05-03T17:28:44.767Z,9.90
2019-05-03T17:31:11.084Z,9.80
2019-05-03T17:33:37.174Z,9.70
2019-05-03T17:36:05.231Z,9.50
2019-05-03T17:38:31.396Z,9.40
2019-05-03T17:41:08.289Z,9.20
2019-05-03T17:43:42.322Z,9.10
2019-05-03T17:46:10.328Z,9.00
2019-05-03T17:48:36.558Z,8.90
2019-05-03T17:51:04.461Z,8.90
2019-05-03T17:53:38.190Z,8.80
2019-05-03T17:56:19.028Z,8.80
2019-05-03T17:58:49.941Z,8.80
2019-05-03T18:01:35.098Z,8.70
2019-05-03T18:04:12.120Z,8.70
2019-05-03T18:06:46.157Z,8.60
2019-05-03T18:09:14.919Z,8.60
2019-05-03T18:11:45.932Z,8.60
2019-05-03T18:14:12.167Z,8.60
2019-05-03T18:16:38.283Z,8.50
2019-05-03T18:19:05.230Z,8.50
2019-05-03T18:21:31.474Z,8.40
2019-05-03T18:23:57.561Z,8.40
2019-05-03T18:26:24.967Z,8.40
2019-05-03T18:28:51.269Z,8.40
2019-05-03T18:31:17.361Z,8.30
2019-05-03T18:33:44.299Z,8.40
2019-05-03T18:36:10.838Z,8.40
2019-05-03T18:38:39.604Z,8.40
2019-05-03T18:41:07.135Z,8.40
2019-05-03T18:43:35.202Z,8.40
2019-05-03T18:46:09.352Z,8.50
2019-05-03T18:48:35.501Z,8.40
2019-05-03T18:51:05.315Z,8.40
2019-05-03T18:53:31.701Z,8.30
2019-05-03T18:55:57.896Z,8.30
2019-05-03T18:58:24.475Z,8.20
2019-05-03T19:00:50.633Z,8.10
2019-05-03T19:03:16.785Z,8.00
2019-05-03T19:05:47.813Z,7.90
2019-05-03T19:08:27.480Z,7.80
2019-05-03T19:11:04.612Z,7.80
2019-05-03T19:13:50.765Z,7.80
2019-05-03T19:16:35.415Z,7.70
2019-05-03T19:19:04.697Z,7.60
2019-05-03T19:21:31.170Z,7.60
2019-05-03T19:23:57.382Z,7.50
2019-05-03T19:26:24.865Z,7.40
2019-05-03T19:28:51.483Z,7.40
2019-05-03T19:31:17.649Z,7.30
2019-05-03T19:33:45.655Z,7.30
2019-05-03T19:36:11.852Z,7.30
2019-05-03T19:38:38.083Z,7.30
2019-05-03T19:41:04.186Z,7.20
2019-05-03T19:43:30.307Z,7.20
2019-05-03T19:45:56.696Z,7.20
2019-05-03T19:48:22.876Z,7.20
2019-05-03T19:50:48.989Z,7.20
2019-05-03T19:53:28.677Z,7.20
2019-05-03T19:55:55.357Z,7.20
2019-05-03T19:58:21.657Z,7.10
2019-05-03T20:01:06.669Z,7.00
2019-05-03T20:03:40.634Z,7.00
2019-05-03T20:06:25.206Z,7.00
2019-05-03T20:08:53.404Z,6.90
2019-05-03T20:11:19.550Z,6.80
2019-05-03T20:13:45.771Z,6.80
2019-05-03T20:16:11.895Z,6.80
2019-05-03T20:18:38.178Z,6.70
2019-05-03T20:21:04.666Z,6.70
2019-05-03T20:23:30.766Z,6.70
2019-05-03T20:25:56.918Z,6.70
2019-05-03T20:28:24.651Z,6.70
2019-05-03T20:30:50.904Z,6.70
2019-05-03T20:33:17.094Z,6.60
2019-05-03T20:35:44.989Z,6.60
2019-05-03T20:38:11.203Z,6.70
2019-05-03T20:40:37.323Z,6.60
2019-05-03T20:43:05.343Z,6.60
2019-05-03T20:45:36.235Z,6.60
2019-05-03T20:48:05.325Z,6.60
2019-05-03T20:50:31.679Z,6.60
2019-05-03T20:52:57.861Z,6.70
2019-05-03T20:55:25.693Z,6.60
2019-05-03T20:57:52.096Z,6.60
2019-05-03T21:00:20.892Z,6.60
2019-05-03T21:02:53.344Z,6.60
2019-05-03T21:05:27.202Z,6.60
2019-05-03T21:07:45.143Z,6.60
2019-05-03T21:10:11.859Z,6.60
2019-05-03T21:12:38.009Z,6.60
2019-05-03T21:15:07.827Z,6.60
2019-05-03T21:17:39.075Z,6.60
2019-05-03T21:20:07.893Z,6.50
2019-05-03T21:22:35.457Z,6.50
2019-05-03T21:25:20.446Z,6.50
2019-05-03T21:27:46.546Z,6.60
2019-05-03T21:30:15.133Z,6.60
2019-05-03T21:32:41.657Z,6.60
2019-05-03T21:35:08.042Z,6.60
2019-05-03T21:37:34.904Z,6.50
2019-05-03T21:40:01.329Z,6.50
2019-05-03T21:42:27.446Z,6.50
2019-05-03T21:44:55.383Z,6.50
2019-05-03T21:47:24.613Z,6.40
2019-05-03T21:49:52.745Z,6.40
2019-05-03T21:52:18.852Z,6.30
2019-05-03T21:54:45.142Z,6.30
2019-05-03T21:57:16.451Z,6.30
2019-05-03T21:59:44.668Z,6.30
2019-05-03T22:02:10.492Z,6.40
2019-05-03T22:04:36.602Z,6.40
2019-05-03T22:07:02.932Z,6.40
2019-05-03T22:09:29.008Z,6.40
2019-05-03T22:11:55.096Z,6.30
2019-05-03T22:14:34.970Z,6.20
2019-05-03T22:17:19.417Z,6.20
2019-05-03T22:19:47.445Z,6.10
2019-05-03T22:22:34.094Z,6.10
2019-05-03T22:25:06.139Z,6.20
2019-05-03T22:27:45.375Z,6.10
2019-05-03T22:30:10.128Z,6.10
2019-05-03T22:32:36.247Z,6.10
2019-05-03T22:35:06.679Z,6.10
2019-05-03T22:37:32.847Z,6.10
2019-05-03T22:39:59.181Z,6.10
2019-05-03T22:42:25.437Z,6.10
2019-05-03T22:44:51.600Z,6.10
2019-05-03T22:47:17.755Z,6.10
2019-05-03T22:49:45.672Z,6.10
2019-05-03T22:52:11.898Z,6.10
2019-05-03T22:54:38.089Z,6.10
2019-05-03T22:57:05.001Z,6.10
2019-05-03T22:59:31.200Z,6.10
2019-05-03T23:01:57.326Z,6.10
2019-05-03T23:04:25.264Z,6.10
2019-05-03T23:06:51.575Z,6.10
2019-05-03T23:09:17.687Z,6.10
2019-05-03T23:11:44.751Z,6.10
2019-05-03T23:14:11.054Z,6.10
2019-05-03T23:16:37.299Z,6.00
2019-05-03T23:19:05.308Z,6.10
2019-05-03T23:21:33.498Z,6.00
2019-05-03T23:23:59.780Z,6.10
2019-05-03T23:26:26.023Z,6.10
2019-05-03T23:28:52.161Z,6.10
2019-05-03T23:31:18.240Z,6.10
2019-05-03T23:33:45.257Z,6.10
2019-05-03T23:36:11.568Z,6.10
2019-05-03T23:38:37.847Z,6.20
2019-05-03T23:41:04.882Z,6.10
2019-05-03T23:43:31.335Z,6.10
2019-05-03T23:45:57.553Z,5.90
2019-05-03T23:48:25.338Z,5.70
2019-05-03T23:50:51.664Z,5.60
2019-05-03T23:53:17.776Z,5.70
2019-05-03T23:55:45.876Z,5.70
2019-05-03T23:58:12.108Z,5.70
